sensor_id;sensor_type;location;lat;lon;timestamp;P1;durP1;ratioP1;P2;durP2;ratioP2
4023;SDS011;2026;51.002;13.668;2022-07-23T00:03:22;6.00;;;5.50;;
4023;SDS011;2026;51.002;13.668;2022-07-23T00:08:25;7.60;;;6.00;;
4023;SDS011;2026;51.002;13.668;2022-07-23T00:13:28;6.27;;;5.70;;
4023;SDS011;2026;51.002;13.668;2022-07-23T00:18:32;6.90;;;6.20;;
4023;SDS011;2026;51.002;13.668;2022-07-23T00:23:35;6.87;;;6.20;;
4023;SDS011;2026;51.002;13.668;2022-07-23T00:28:38;6.80;;;6.20;;
4023;SDS011;2026;51.002;13.668;2022-07-23T00:33:42;7.47;;;5.67;;
4023;SDS011;2026;51.002;13.668;2022-07-23T00:38:45;6.70;;;6.10;;
4023;SDS011;2026;51.002;13.668;2022-07-23T00:43:48;5.50;;;5.00;;
4023;SDS011;2026;51.002;13.668;2022-07-23T00:48:53;6.17;;;5.67;;
4023;SDS011;2026;51.002;13.668;2022-07-23T00:53:56;6.50;;;5.00;;
4023;SDS011;2026;51.002;13.668;2022-07-23T00:58:59;8.37;;;6.33;;
4023;SDS011;2026;51.002;13.668;2022-07-23T01:04:05;6.40;;;5.90;;
4023;SDS011;2026;51.002;13.668;2022-07-23T01:09:08;6.07;;;5.57;;
4023;SDS011;2026;51.002;13.668;2022-07-23T01:14:11;6.87;;;6.20;;
4023;SDS011;2026;51.002;13.668;2022-07-23T01:19:17;5.80;;;5.30;;
4023;SDS011;2026;51.002;13.668;2022-07-23T01:24:22;6.17;;;5.57;;
4023;SDS011;2026;51.002;13.668;2022-07-23T01:29:34;6.40;;;5.90;;
4023;SDS011;2026;51.002;13.668;2022-07-23T01:34:42;7.00;;;6.30;;
4023;SDS011;2026;51.002;13.668;2022-07-23T01:39:47;6.50;;;5.90;;
4023;SDS011;2026;51.002;13.668;2022-07-23T01:44:50;6.20;;;5.70;;
4023;SDS011;2026;51.002;13.668;2022-07-23T01:49:55;6.40;;;5.80;;
4023;SDS011;2026;51.002;13.668;2022-07-23T01:55:20;6.93;;;6.33;;
4023;SDS011;2026;51.002;13.668;2022-07-23T02:00:23;6.73;;;6.13;;
4023;SDS011;2026;51.002;13.668;2022-07-23T02:05:27;6.70;;;6.10;;
4023;SDS011;2026;51.002;13.668;2022-07-23T02:10:34;6.80;;;6.10;;
4023;SDS011;2026;51.002;13.668;2022-07-23T02:15:38;11.10;;;6.40;;
4023;SDS011;2026;51.002;13.668;2022-07-23T02:20:41;6.80;;;6.10;;
4023;SDS011;2026;51.002;13.668;2022-07-23T02:25:47;6.57;;;5.93;;
4023;SDS011;2026;51.002;13.668;2022-07-23T02:30:50;7.00;;;6.40;;
4023;SDS011;2026;51.002;13.668;2022-07-23T02:35:53;6.80;;;6.20;;
4023;SDS011;2026;51.002;13.668;2022-07-23T02:40:58;6.30;;;5.80;;
4023;SDS011;2026;51.002;13.668;2022-07-23T02:46:01;6.90;;;6.30;;
4023;SDS011;2026;51.002;13.668;2022-07-23T02:51:05;7.07;;;5.83;;
4023;SDS011;2026;51.002;13.668;2022-07-23T02:56:20;7.60;;;6.60;;
4023;SDS011;2026;51.002;13.668;2022-07-23T03:01:24;7.13;;;6.43;;
4023;SDS011;2026;51.002;13.668;2022-07-23T03:06:27;8.50;;;5.87;;
4023;SDS011;2026;51.002;13.668;2022-07-23T03:11:32;7.03;;;5.83;;
4023;SDS011;2026;51.002;13.668;2022-07-23T03:16:35;7.40;;;6.67;;
4023;SDS011;2026;51.002;13.668;2022-07-23T03:21:38;8.30;;;6.90;;
4023;SDS011;2026;51.002;13.668;2022-07-23T03:26:43;7.90;;;6.27;;
4023;SDS011;2026;51.002;13.668;2022-07-23T03:31:46;7.63;;;6.93;;
4023;SDS011;2026;51.002;13.668;2022-07-23T03:36:49;8.10;;;6.70;;
4023;SDS011;2026;51.002;13.668;2022-07-23T03:41:54;8.63;;;7.70;;
4023;SDS011;2026;51.002;13.668;2022-07-23T03:46:57;8.77;;;7.60;;
4023;SDS011;2026;51.002;13.668;2022-07-23T03:52:01;8.77;;;7.97;;
4023;SDS011;2026;51.002;13.668;2022-07-23T03:57:06;9.30;;;8.07;;
4023;SDS011;2026;51.002;13.668;2022-07-23T04:02:09;8.60;;;7.30;;
4023;SDS011;2026;51.002;13.668;2022-07-23T04:07:12;8.53;;;7.73;;
4023;SDS011;2026;51.002;13.668;2022-07-23T04:12:17;10.27;;;8.43;;
4023;SDS011;2026;51.002;13.668;2022-07-23T04:17:20;7.93;;;7.20;;
4023;SDS011;2026;51.002;13.668;2022-07-23T04:22:23;8.40;;;7.60;;
4023;SDS011;2026;51.002;13.668;2022-07-23T04:27:28;7.70;;;6.90;;
4023;SDS011;2026;51.002;13.668;2022-07-23T04:32:31;8.23;;;7.50;;
4023;SDS011;2026;51.002;13.668;2022-07-23T04:37:35;7.90;;;7.20;;
4023;SDS011;2026;51.002;13.668;2022-07-23T04:42:39;7.40;;;6.70;;
4023;SDS011;2026;51.002;13.668;2022-07-23T04:47:42;7.53;;;6.83;;
4023;SDS011;2026;51.002;13.668;2022-07-23T04:52:46;8.57;;;6.67;;
4023;SDS011;2026;51.002;13.668;2022-07-23T04:57:51;6.40;;;5.47;;
4023;SDS011;2026;51.002;13.668;2022-07-23T05:02:54;6.70;;;6.00;;
4023;SDS011;2026;51.002;13.668;2022-07-23T05:07:57;6.63;;;6.03;;
4023;SDS011;2026;51.002;13.668;2022-07-23T05:13:03;6.70;;;5.77;;
4023;SDS011;2026;51.002;13.668;2022-07-23T05:18:06;6.83;;;6.23;;
4023;SDS011;2026;51.002;13.668;2022-07-23T05:23:10;6.87;;;6.27;;
4023;SDS011;2026;51.002;13.668;2022-07-23T05:28:16;7.90;;;6.30;;
4023;SDS011;2026;51.002;13.668;2022-07-23T05:33:23;8.60;;;6.37;;
4023;SDS011;2026;51.002;13.668;2022-07-23T05:38:27;7.40;;;6.70;;
4023;SDS011;2026;51.002;13.668;2022-07-23T05:43:34;7.93;;;7.13;;
4023;SDS011;2026;51.002;13.668;2022-07-23T05:48:43;8.27;;;7.40;;
4023;SDS011;2026;51.002;13.668;2022-07-23T05:54:07;7.57;;;6.87;;
4023;SDS011;2026;51.002;13.668;2022-07-23T05:59:14;7.67;;;6.70;;
4023;SDS011;2026;51.002;13.668;2022-07-23T06:04:17;8.60;;;7.30;;
4023;SDS011;2026;51.002;13.668;2022-07-23T06:09:32;9.13;;;6.87;;
4023;SDS011;2026;51.002;13.668;2022-07-23T06:14:37;9.13;;;7.90;;
4023;SDS011;2026;51.002;13.668;2022-07-23T06:19:40;10.07;;;9.00;;
4023;SDS011;2026;51.002;13.668;2022-07-23T06:24:43;12.40;;;9.47;;
4023;SDS011;2026;51.002;13.668;2022-07-23T06:29:48;11.93;;;8.73;;
4023;SDS011;2026;51.002;13.668;2022-07-23T06:34:51;13.00;;;9.00;;
4023;SDS011;2026;51.002;13.668;2022-07-23T06:39:55;10.47;;;9.30;;
4023;SDS011;2026;51.002;13.668;2022-07-23T06:44:59;10.57;;;9.20;;
4023;SDS011;2026;51.002;13.668;2022-07-23T06:50:03;11.23;;;9.13;;
4023;SDS011;2026;51.002;13.668;2022-07-23T06:55:06;11.70;;;9.40;;
4023;SDS011;2026;51.002;13.668;2022-07-23T07:00:11;11.10;;;8.97;;
4023;SDS011;2026;51.002;13.668;2022-07-23T07:05:15;9.83;;;8.83;;
4023;SDS011;2026;51.002;13.668;2022-07-23T07:10:18;10.30;;;8.77;;
4023;SDS011;2026;51.002;13.668;2022-07-23T07:15:23;13.03;;;8.30;;
4023;SDS011;2026;51.002;13.668;2022-07-23T07:20:26;9.80;;;8.70;;
4023;SDS011;2026;51.002;13.668;2022-07-23T07:25:29;9.53;;;8.27;;
4023;SDS011;2026;51.002;13.668;2022-07-23T07:30:34;13.27;;;8.47;;
4023;SDS011;2026;51.002;13.668;2022-07-23T07:35:37;9.20;;;7.97;;
4023;SDS011;2026;51.002;13.668;2022-07-23T07:40:40;9.40;;;8.27;;
4023;SDS011;2026;51.002;13.668;2022-07-23T07:45:44;10.03;;;8.83;;
4023;SDS011;2026;51.002;13.668;2022-07-23T07:50:47;12.47;;;7.97;;
4023;SDS011;2026;51.002;13.668;2022-07-23T07:55:50;10.27;;;8.10;;
4023;SDS011;2026;51.002;13.668;2022-07-23T08:00:55;7.60;;;6.90;;
4023;SDS011;2026;51.002;13.668;2022-07-23T08:05:58;10.07;;;8.60;;
4023;SDS011;2026;51.002;13.668;2022-07-23T08:11:01;10.23;;;9.23;;
4023;SDS011;2026;51.002;13.668;2022-07-23T08:16:06;10.13;;;8.43;;
4023;SDS011;2026;51.002;13.668;2022-07-23T08:21:10;7.87;;;7.07;;
4023;SDS011;2026;51.002;13.668;2022-07-23T08:26:13;9.40;;;8.27;;
4023;SDS011;2026;51.002;13.668;2022-07-23T08:31:18;11.40;;;9.48;;
4023;SDS011;2026;51.002;13.668;2022-07-23T08:36:21;9.88;;;8.32;;
4023;SDS011;2026;51.002;13.668;2022-07-23T08:41:24;9.30;;;7.80;;
4023;SDS011;2026;51.002;13.668;2022-07-23T08:46:28;11.98;;;8.27;;
4023;SDS011;2026;51.002;13.668;2022-07-23T08:51:32;11.20;;;7.47;;
4023;SDS011;2026;51.002;13.668;2022-07-23T08:56:35;7.63;;;6.93;;
4023;SDS011;2026;51.002;13.668;2022-07-23T09:01:40;7.75;;;6.95;;
4023;SDS011;2026;51.002;13.668;2022-07-23T09:06:43;8.23;;;7.30;;
4023;SDS011;2026;51.002;13.668;2022-07-23T09:11:46;8.07;;;7.28;;
4023;SDS011;2026;51.002;13.668;2022-07-23T09:16:51;9.32;;;7.95;;
4023;SDS011;2026;51.002;13.668;2022-07-23T09:21:54;7.25;;;6.57;;
4023;SDS011;2026;51.002;13.668;2022-07-23T09:27:17;7.95;;;7.15;;
4023;SDS011;2026;51.002;13.668;2022-07-23T09:32:21;14.57;;;7.20;;
4023;SDS011;2026;51.002;13.668;2022-07-23T09:37:24;9.63;;;8.63;;
4023;SDS011;2026;51.002;13.668;2022-07-23T09:42:27;8.10;;;7.32;;
4023;SDS011;2026;51.002;13.668;2022-07-23T09:47:32;10.05;;;8.05;;
4023;SDS011;2026;51.002;13.668;2022-07-23T09:52:36;8.93;;;7.38;;
4023;SDS011;2026;51.002;13.668;2022-07-23T09:57:46;9.15;;;7.93;;
4023;SDS011;2026;51.002;13.668;2022-07-23T10:02:53;9.98;;;8.93;;
4023;SDS011;2026;51.002;13.668;2022-07-23T10:08:01;11.10;;;7.93;;
4023;SDS011;2026;51.002;13.668;2022-07-23T10:13:22;7.93;;;7.20;;
4023;SDS011;2026;51.002;13.668;2022-07-23T10:18:46;8.45;;;7.10;;
4023;SDS011;2026;51.002;13.668;2022-07-23T10:23:51;8.45;;;7.65;;
4023;SDS011;2026;51.002;13.668;2022-07-23T10:29:09;10.63;;;8.25;;
4023;SDS011;2026;51.002;13.668;2022-07-23T10:34:24;9.27;;;7.90;;
4023;SDS011;2026;51.002;13.668;2022-07-23T10:39:34;8.73;;;6.93;;
4023;SDS011;2026;51.002;13.668;2022-07-23T10:44:39;9.35;;;8.07;;
4023;SDS011;2026;51.002;13.668;2022-07-23T10:49:45;10.60;;;8.63;;
4023;SDS011;2026;51.002;13.668;2022-07-23T10:54:49;8.55;;;7.75;;
4023;SDS011;2026;51.002;13.668;2022-07-23T11:00:10;9.50;;;7.97;;
4023;SDS011;2026;51.002;13.668;2022-07-23T11:05:41;12.20;;;8.07;;
4023;SDS011;2026;51.002;13.668;2022-07-23T11:10:46;9.38;;;7.63;;
4023;SDS011;2026;51.002;13.668;2022-07-23T11:16:04;11.82;;;7.97;;
4023;SDS011;2026;51.002;13.668;2022-07-23T11:21:46;8.68;;;7.72;;
4023;SDS011;2026;51.002;13.668;2022-07-23T11:26:54;9.13;;;7.80;;
4023;SDS011;2026;51.002;13.668;2022-07-23T11:32:06;8.27;;;7.47;;
4023;SDS011;2026;51.002;13.668;2022-07-23T11:37:26;8.35;;;7.63;;
4023;SDS011;2026;51.002;13.668;2022-07-23T11:42:40;10.57;;;8.98;;
4023;SDS011;2026;51.002;13.668;2022-07-23T11:47:54;7.80;;;7.00;;
4023;SDS011;2026;51.002;13.668;2022-07-23T11:52:59;8.50;;;7.65;;
4023;SDS011;2026;51.002;13.668;2022-07-23T11:58:02;7.60;;;6.88;;
4023;SDS011;2026;51.002;13.668;2022-07-23T12:03:05;8.30;;;7.40;;
4023;SDS011;2026;51.002;13.668;2022-07-23T12:08:10;8.60;;;7.53;;
4023;SDS011;2026;51.002;13.668;2022-07-23T12:13:14;10.40;;;7.85;;
4023;SDS011;2026;51.002;13.668;2022-07-23T12:18:21;8.77;;;7.85;;
4023;SDS011;2026;51.002;13.668;2022-07-23T12:23:27;9.43;;;8.40;;
4023;SDS011;2026;51.002;13.668;2022-07-23T12:28:30;15.40;;;8.20;;
4023;SDS011;2026;51.002;13.668;2022-07-23T12:33:35;10.47;;;9.10;;
4023;SDS011;2026;51.002;13.668;2022-07-23T12:38:42;9.27;;;8.30;;
4023;SDS011;2026;51.002;13.668;2022-07-23T12:43:50;13.00;;;9.17;;
4023;SDS011;2026;51.002;13.668;2022-07-23T12:48:54;9.83;;;8.93;;
4023;SDS011;2026;51.002;13.668;2022-07-23T12:54:03;10.50;;;9.27;;
4023;SDS011;2026;51.002;13.668;2022-07-23T12:59:08;10.10;;;8.40;;
4023;SDS011;2026;51.002;13.668;2022-07-23T13:04:13;10.60;;;8.47;;
4023;SDS011;2026;51.002;13.668;2022-07-23T13:09:20;9.30;;;8.50;;
4023;SDS011;2026;51.002;13.668;2022-07-23T13:14:25;11.13;;;9.40;;
4023;SDS011;2026;51.002;13.668;2022-07-23T13:19:29;11.82;;;9.95;;
4023;SDS011;2026;51.002;13.668;2022-07-23T13:24:33;11.27;;;10.10;;
4023;SDS011;2026;51.002;13.668;2022-07-23T13:29:56;11.00;;;9.95;;
4023;SDS011;2026;51.002;13.668;2022-07-23T13:34:59;12.00;;;10.80;;
4023;SDS011;2026;51.002;13.668;2022-07-23T13:40:05;10.33;;;9.33;;
4023;SDS011;2026;51.002;13.668;2022-07-23T13:45:18;15.83;;;11.47;;
4023;SDS011;2026;51.002;13.668;2022-07-23T13:50:22;11.82;;;10.70;;
4023;SDS011;2026;51.002;13.668;2022-07-23T13:55:29;12.13;;;10.95;;
4023;SDS011;2026;51.002;13.668;2022-07-23T14:00:35;11.18;;;10.07;;
4023;SDS011;2026;51.002;13.668;2022-07-23T14:05:53;11.68;;;10.32;;
4023;SDS011;2026;51.002;13.668;2022-07-23T14:10:59;11.52;;;10.43;;
4023;SDS011;2026;51.002;13.668;2022-07-23T14:16:08;10.35;;;9.27;;
4023;SDS011;2026;51.002;13.668;2022-07-23T14:21:11;11.93;;;9.13;;
4023;SDS011;2026;51.002;13.668;2022-07-23T14:26:15;11.80;;;9.50;;
4023;SDS011;2026;51.002;13.668;2022-07-23T14:31:18;9.88;;;8.98;;
4023;SDS011;2026;51.002;13.668;2022-07-23T14:36:22;10.15;;;7.80;;
4023;SDS011;2026;51.002;13.668;2022-07-23T14:41:26;9.93;;;8.90;;
4023;SDS011;2026;51.002;13.668;2022-07-23T14:46:30;10.10;;;9.07;;
4023;SDS011;2026;51.002;13.668;2022-07-23T14:51:34;10.07;;;8.18;;
4023;SDS011;2026;51.002;13.668;2022-07-23T14:56:39;10.05;;;9.15;;
4023;SDS011;2026;51.002;13.668;2022-07-23T15:01:43;9.93;;;8.93;;
4023;SDS011;2026;51.002;13.668;2022-07-23T15:06:46;10.52;;;8.43;;
4023;SDS011;2026;51.002;13.668;2022-07-23T15:11:51;10.32;;;9.23;;
4023;SDS011;2026;51.002;13.668;2022-07-23T15:16:54;10.67;;;9.60;;
4023;SDS011;2026;51.002;13.668;2022-07-23T15:21:57;14.20;;;9.57;;
4023;SDS011;2026;51.002;13.668;2022-07-23T15:27:04;11.20;;;10.07;;
4023;SDS011;2026;51.002;13.668;2022-07-23T15:32:08;11.88;;;10.07;;
4023;SDS011;2026;51.002;13.668;2022-07-23T15:37:13;16.00;;;9.20;;
4023;SDS011;2026;51.002;13.668;2022-07-23T15:42:19;12.52;;;9.40;;
4023;SDS011;2026;51.002;13.668;2022-07-23T15:47:22;13.57;;;9.07;;
4023;SDS011;2026;51.002;13.668;2022-07-23T15:52:25;12.65;;;11.35;;
4023;SDS011;2026;51.002;13.668;2022-07-23T15:57:30;12.50;;;10.98;;
4023;SDS011;2026;51.002;13.668;2022-07-23T16:02:35;14.48;;;12.48;;
4023;SDS011;2026;51.002;13.668;2022-07-23T16:07:38;15.48;;;13.27;;
4023;SDS011;2026;51.002;13.668;2022-07-23T16:12:43;14.13;;;12.73;;
4023;SDS011;2026;51.002;13.668;2022-07-23T16:17:46;13.43;;;11.70;;
4023;SDS011;2026;51.002;13.668;2022-07-23T16:22:50;14.65;;;13.18;;
4023;SDS011;2026;51.002;13.668;2022-07-23T16:27:55;14.50;;;13.00;;
4023;SDS011;2026;51.002;13.668;2022-07-23T16:33:07;14.98;;;13.35;;
4023;SDS011;2026;51.002;13.668;2022-07-23T16:38:10;13.40;;;12.10;;
4023;SDS011;2026;51.002;13.668;2022-07-23T16:43:14;14.95;;;13.43;;
4023;SDS011;2026;51.002;13.668;2022-07-23T16:48:17;13.80;;;12.32;;
4023;SDS011;2026;51.002;13.668;2022-07-23T16:53:21;15.38;;;12.48;;
4023;SDS011;2026;51.002;13.668;2022-07-23T16:58:25;16.67;;;13.60;;
4023;SDS011;2026;51.002;13.668;2022-07-23T17:03:28;17.42;;;14.48;;
4023;SDS011;2026;51.002;13.668;2022-07-23T17:08:31;15.43;;;13.02;;
4023;SDS011;2026;51.002;13.668;2022-07-23T17:13:36;14.48;;;12.38;;
4023;SDS011;2026;51.002;13.668;2022-07-23T17:18:39;14.37;;;11.23;;
4023;SDS011;2026;51.002;13.668;2022-07-23T17:23:43;13.20;;;11.50;;
4023;SDS011;2026;51.002;13.668;2022-07-23T17:28:48;14.30;;;12.18;;
4023;SDS011;2026;51.002;13.668;2022-07-23T17:33:52;12.55;;;10.57;;
4023;SDS011;2026;51.002;13.668;2022-07-23T17:38:55;11.43;;;9.90;;
4023;SDS011;2026;51.002;13.668;2022-07-23T17:44:03;15.25;;;10.52;;
4023;SDS011;2026;51.002;13.668;2022-07-23T17:49:07;11.15;;;9.32;;
4023;SDS011;2026;51.002;13.668;2022-07-23T17:54:10;12.77;;;10.02;;
4023;SDS011;2026;51.002;13.668;2022-07-23T17:59:16;10.63;;;9.50;;
4023;SDS011;2026;51.002;13.668;2022-07-23T18:04:19;12.40;;;9.63;;
4023;SDS011;2026;51.002;13.668;2022-07-23T18:09:23;13.67;;;10.33;;
4023;SDS011;2026;51.002;13.668;2022-07-23T18:14:28;10.40;;;9.30;;
4023;SDS011;2026;51.002;13.668;2022-07-23T18:19:31;13.97;;;10.07;;
4023;SDS011;2026;51.002;13.668;2022-07-23T18:24:34;11.13;;;10.00;;
4023;SDS011;2026;51.002;13.668;2022-07-23T18:29:39;11.73;;;9.70;;
4023;SDS011;2026;51.002;13.668;2022-07-23T18:34:42;11.23;;;10.03;;
4023;SDS011;2026;51.002;13.668;2022-07-23T18:39:45;10.05;;;9.05;;
4023;SDS011;2026;51.002;13.668;2022-07-23T18:44:50;15.00;;;8.97;;
4023;SDS011;2026;51.002;13.668;2022-07-23T18:49:53;10.60;;;9.53;;
4023;SDS011;2026;51.002;13.668;2022-07-23T18:54:56;10.40;;;9.30;;
4023;SDS011;2026;51.002;13.668;2022-07-23T19:00:00;11.32;;;9.63;;
4023;SDS011;2026;51.002;13.668;2022-07-23T19:05:05;11.13;;;8.70;;
4023;SDS011;2026;51.002;13.668;2022-07-23T19:10:09;9.80;;;8.80;;
4023;SDS011;2026;51.002;13.668;2022-07-23T19:15:14;10.95;;;9.13;;
4023;SDS011;2026;51.002;13.668;2022-07-23T19:20:18;11.87;;;10.00;;
4023;SDS011;2026;51.002;13.668;2022-07-23T19:25:21;10.60;;;8.97;;
4023;SDS011;2026;51.002;13.668;2022-07-23T19:30:25;10.77;;;9.77;;
4023;SDS011;2026;51.002;13.668;2022-07-23T19:35:29;11.63;;;9.80;;
4023;SDS011;2026;51.002;13.668;2022-07-23T19:40:33;11.23;;;10.10;;
4023;SDS011;2026;51.002;13.668;2022-07-23T19:45:37;12.73;;;10.20;;
4023;SDS011;2026;51.002;13.668;2022-07-23T19:50:42;10.50;;;9.30;;
4023;SDS011;2026;51.002;13.668;2022-07-23T19:55:45;12.00;;;10.80;;
4023;SDS011;2026;51.002;13.668;2022-07-23T20:00:50;12.17;;;10.87;;
4023;SDS011;2026;51.002;13.668;2022-07-23T20:05:54;13.17;;;10.73;;
4023;SDS011;2026;51.002;13.668;2022-07-23T20:10:57;12.63;;;11.33;;
4023;SDS011;2026;51.002;13.668;2022-07-23T20:16:02;10.90;;;9.80;;
4023;SDS011;2026;51.002;13.668;2022-07-23T20:21:05;13.57;;;12.17;;
4023;SDS011;2026;51.002;13.668;2022-07-23T20:26:08;12.43;;;11.23;;
4023;SDS011;2026;51.002;13.668;2022-07-23T20:31:13;12.00;;;10.80;;
4023;SDS011;2026;51.002;13.668;2022-07-23T20:36:16;11.93;;;10.73;;
4023;SDS011;2026;51.002;13.668;2022-07-23T20:41:19;13.83;;;11.83;;
4023;SDS011;2026;51.002;13.668;2022-07-23T20:46:23;11.73;;;10.53;;
4023;SDS011;2026;51.002;13.668;2022-07-23T20:51:27;13.30;;;11.93;;
4023;SDS011;2026;51.002;13.668;2022-07-23T20:56:30;19.30;;;13.70;;
4023;SDS011;2026;51.002;13.668;2022-07-23T21:01:35;15.20;;;13.50;;
4023;SDS011;2026;51.002;13.668;2022-07-23T21:06:38;15.80;;;13.63;;
4023;SDS011;2026;51.002;13.668;2022-07-23T21:11:41;17.37;;;14.50;;
4023;SDS011;2026;51.002;13.668;2022-07-23T21:16:45;15.00;;;13.20;;
4023;SDS011;2026;51.002;13.668;2022-07-23T21:21:48;14.20;;;12.60;;
4023;SDS011;2026;51.002;13.668;2022-07-23T21:26:51;16.33;;;13.30;;
4023;SDS011;2026;51.002;13.668;2022-07-23T21:31:56;17.00;;;15.20;;
4023;SDS011;2026;51.002;13.668;2022-07-23T21:37:00;15.47;;;13.80;;
4023;SDS011;2026;51.002;13.668;2022-07-23T21:42:03;14.40;;;12.83;;
4023;SDS011;2026;51.002;13.668;2022-07-23T21:47:08;18.23;;;14.23;;
4023;SDS011;2026;51.002;13.668;2022-07-23T21:52:11;15.73;;;14.00;;
4023;SDS011;2026;51.002;13.668;2022-07-23T21:57:14;21.30;;;13.13;;
4023;SDS011;2026;51.002;13.668;2022-07-23T22:02:19;17.37;;;13.40;;
4023;SDS011;2026;51.002;13.668;2022-07-23T22:07:22;17.70;;;13.53;;
4023;SDS011;2026;51.002;13.668;2022-07-23T22:12:25;14.23;;;12.70;;
4023;SDS011;2026;51.002;13.668;2022-07-23T22:17:30;17.47;;;15.00;;
4023;SDS011;2026;51.002;13.668;2022-07-23T22:22:33;16.20;;;13.97;;
4023;SDS011;2026;51.002;13.668;2022-07-23T22:27:36;15.40;;;13.47;;
4023;SDS011;2026;51.002;13.668;2022-07-23T22:32:41;14.90;;;13.33;;
4023;SDS011;2026;51.002;13.668;2022-07-23T22:37:45;16.77;;;14.70;;
4023;SDS011;2026;51.002;13.668;2022-07-23T22:42:48;16.63;;;14.40;;
4023;SDS011;2026;51.002;13.668;2022-07-23T22:47:53;17.27;;;14.40;;
4023;SDS011;2026;51.002;13.668;2022-07-23T22:52:56;14.40;;;12.90;;
4023;SDS011;2026;51.002;13.668;2022-07-23T22:57:59;18.40;;;13.97;;
4023;SDS011;2026;51.002;13.668;2022-07-23T23:03:04;16.17;;;14.47;;
4023;SDS011;2026;51.002;13.668;2022-07-23T23:08:07;15.60;;;12.87;;
4023;SDS011;2026;51.002;13.668;2022-07-23T23:13:10;17.37;;;14.97;;
4023;SDS011;2026;51.002;13.668;2022-07-23T23:18:17;18.50;;;14.27;;
4023;SDS011;2026;51.002;13.668;2022-07-23T23:23:20;16.60;;;14.00;;
4023;SDS011;2026;51.002;13.668;2022-07-23T23:28:23;16.70;;;13.67;;
4023;SDS011;2026;51.002;13.668;2022-07-23T23:33:27;14.93;;;13.33;;
4023;SDS011;2026;51.002;13.668;2022-07-23T23:38:30;17.53;;;13.77;;
4023;SDS011;2026;51.002;13.668;2022-07-23T23:43:33;15.77;;;13.80;;
4023;SDS011;2026;51.002;13.668;2022-07-23T23:48:38;16.50;;;13.63;;
4023;SDS011;2026;51.002;13.668;2022-07-23T23:53:41;16.07;;;13.57;;
4023;SDS011;2026;51.002;13.668;2022-07-23T23:58:44;15.67;;;13.07;;
